createdAt,value
2022-10-13T00:01:51.482Z,20.48
2022-10-13T00:06:55.163Z,22.85
2022-10-13T00:12:02.790Z,16.53
2022-10-13T00:17:07.791Z,29.23
2022-10-13T00:22:11.460Z,24.08
2022-10-13T00:27:15.139Z,25.83
2022-10-13T00:32:20.934Z,26.08
2022-10-13T00:37:24.921Z,19.35
2022-10-13T00:42:28.616Z,18.95
2022-10-13T00:47:44.934Z,22.23
2022-10-13T00:52:49.632Z,23.45
2022-10-13T00:57:56.183Z,22.40
2022-10-13T01:03:04.217Z,17.47
2022-10-13T01:08:08.365Z,18.87
2022-10-13T01:13:21.364Z,19.42
2022-10-13T01:18:38.754Z,24.52
2022-10-13T01:24:11.443Z,21.05
2022-10-13T01:29:31.118Z,20.77
2022-10-13T01:34:44.748Z,18.10
2022-10-13T01:39:54.599Z,21.95
2022-10-13T01:45:02.649Z,20.60
2022-10-13T01:50:09.619Z,18.27
2022-10-13T01:55:14.648Z,23.12
2022-10-13T02:00:20.714Z,20.52
2022-10-13T02:05:35.469Z,20.45
2022-10-13T02:10:47.086Z,22.75
2022-10-13T02:15:55.314Z,24.65
2022-10-13T02:21:00.660Z,25.83
2022-10-13T02:26:04.954Z,19.80
2022-10-13T02:31:09.566Z,25.00
2022-10-13T02:36:14.572Z,19.50
2022-10-13T02:41:18.282Z,19.98
2022-10-13T02:46:22.005Z,21.58
2022-10-13T02:51:27.433Z,17.48
2022-10-13T02:56:31.103Z,23.75
2022-10-13T03:01:35.843Z,18.60
2022-10-13T03:06:40.912Z,19.37
2022-10-13T03:11:46.158Z,21.30
2022-10-13T03:16:49.894Z,16.45
2022-10-13T03:21:57.924Z,23.62
2022-10-13T03:27:01.532Z,22.25
2022-10-13T03:32:05.708Z,24.20
2022-10-13T03:37:10.807Z,18.52
2022-10-13T03:47:23.756Z,17.65
2022-10-13T03:52:28.752Z,19.90
2022-10-13T03:57:32.445Z,18.42
2022-10-13T04:02:36.264Z,22.23
2022-10-13T04:07:41.489Z,19.42
2022-10-13T04:12:50.939Z,16.87
2022-10-13T04:17:54.705Z,21.40
2022-10-13T04:22:59.686Z,20.27
2022-10-13T04:28:03.471Z,28.33
2022-10-13T04:33:09.257Z,21.70
2022-10-13T04:38:14.306Z,22.00
2022-10-13T04:43:18.314Z,26.25
2022-10-13T04:48:21.948Z,21.45
2022-10-13T04:53:29.082Z,20.55
2022-10-13T04:58:32.852Z,26.83
2022-10-13T05:03:38.123Z,24.05
2022-10-13T05:08:43.164Z,21.35
2022-10-13T05:13:50.510Z,23.05
2022-10-13T05:18:55.844Z,20.15
2022-10-13T05:24:02.503Z,29.95
2022-10-13T05:29:06.812Z,20.85
2022-10-13T05:34:11.253Z,25.58
2022-10-13T05:39:16.314Z,22.10
2022-10-13T05:44:20.569Z,30.62
2022-10-13T05:49:27.059Z,22.10
2022-10-13T05:54:36.191Z,27.02
2022-10-13T05:59:43.094Z,28.15
2022-10-13T06:04:51.621Z,22.75
2022-10-13T06:15:01.048Z,27.27
2022-10-13T06:20:06.124Z,21.45
2022-10-13T06:25:11.577Z,27.00
2022-10-13T06:30:15.354Z,30.67
2022-10-13T06:35:19.181Z,33.97
2022-10-13T06:40:24.357Z,30.33
2022-10-13T06:45:28.213Z,22.33
2022-10-13T06:50:32.268Z,31.10
2022-10-13T06:55:37.416Z,25.15
2022-10-13T07:00:42.453Z,23.62
2022-10-13T07:05:46.884Z,32.47
2022-10-13T07:10:51.965Z,29.77
2022-10-13T07:15:55.760Z,33.85
2022-10-13T07:21:01.767Z,30.58
2022-10-13T07:26:10.654Z,30.88
2022-10-13T07:31:15.971Z,30.90
2022-10-13T07:36:20.425Z,33.65
2022-10-13T07:41:25.847Z,30.42
2022-10-13T07:46:32.073Z,27.10
2022-10-13T07:51:35.726Z,26.33
2022-10-13T07:56:40.742Z,34.13
2022-10-13T08:01:45.992Z,30.42
2022-10-13T08:06:49.819Z,30.90
2022-10-13T08:11:58.899Z,28.65
2022-10-13T08:17:04.399Z,37.20
2022-10-13T08:22:09.820Z,26.70
2022-10-13T08:27:20.941Z,37.35
2022-10-13T08:32:24.876Z,33.65
2022-10-13T08:37:29.202Z,32.40
2022-10-13T08:42:34.450Z,31.12
2022-10-13T08:47:44.603Z,32.90
2022-10-13T08:52:51.328Z,30.02
2022-10-13T08:57:56.568Z,32.13
2022-10-13T09:03:20.698Z,31.67
2022-10-13T09:08:28.028Z,33.90
2022-10-13T09:13:34.194Z,36.78
2022-10-13T09:18:38.502Z,20.75
2022-10-13T09:23:43.881Z,29.25
2022-10-13T09:28:49.313Z,28.02
2022-10-13T09:34:00.549Z,24.70
2022-10-13T09:39:12.503Z,35.05
2022-10-13T09:44:24.242Z,25.80
2022-10-13T09:49:38.373Z,23.83
2022-10-13T09:54:46.751Z,26.40
2022-10-13T10:04:59.438Z,26.48
2022-10-13T10:10:06.758Z,27.75
2022-10-13T10:15:22.276Z,26.95
2022-10-13T10:20:45.871Z,22.30
2022-10-13T10:25:52.799Z,24.60
2022-10-13T10:31:04.394Z,23.92
2022-10-13T10:36:16.928Z,25.25
2022-10-13T10:41:37.320Z,28.58
2022-10-13T10:46:47.659Z,22.13
2022-10-13T10:51:51.414Z,21.15
2022-10-13T10:56:59.446Z,32.92
2022-10-13T11:02:17.476Z,22.40
2022-10-13T11:08:09.793Z,24.48
2022-10-13T11:13:19.882Z,27.90
2022-10-13T11:19:05.700Z,22.70
2022-10-13T11:24:55.133Z,25.05
2022-10-13T11:30:01.186Z,22.35
2022-10-13T11:35:21.119Z,27.08
2022-10-13T11:40:33.760Z,19.98
2022-10-13T11:45:46.597Z,20.20
2022-10-13T11:51:04.839Z,32.03
2022-10-13T11:56:21.139Z,22.70
2022-10-13T12:01:24.935Z,20.37
2022-10-13T12:06:34.257Z,23.02
2022-10-13T12:11:39.620Z,21.85
2022-10-13T12:16:53.661Z,18.12
2022-10-13T12:21:59.282Z,24.65
2022-10-13T12:27:11.798Z,27.75
2022-10-13T12:32:23.204Z,24.58
2022-10-13T12:37:29.652Z,20.23
2022-10-13T12:42:37.342Z,23.40
2022-10-13T12:47:49.278Z,22.57
2022-10-13T12:52:55.133Z,25.85
2022-10-13T12:58:00.542Z,18.65
2022-10-13T13:03:07.709Z,26.30
2022-10-13T13:08:25.838Z,17.95
2022-10-13T13:13:31.579Z,18.55
2022-10-13T13:18:41.614Z,22.77
2022-10-13T13:23:52.785Z,23.90
2022-10-13T13:29:00.403Z,18.70
2022-10-13T13:34:04.099Z,16.75
2022-10-13T13:39:13.622Z,17.23
2022-10-13T13:44:20.604Z,16.77
2022-10-13T13:49:24.854Z,20.95
2022-10-13T13:54:28.612Z,20.15
2022-10-13T13:59:34.330Z,22.80
2022-10-13T14:04:38.492Z,20.80
2022-10-13T14:09:42.176Z,20.30
2022-10-13T14:14:48.104Z,23.05
2022-10-13T14:19:52.262Z,24.00
2022-10-13T14:24:55.930Z,23.85
2022-10-13T14:30:01.461Z,23.40
2022-10-13T14:35:06.629Z,23.58
2022-10-13T14:40:11.175Z,27.67
2022-10-13T14:45:16.825Z,29.40
2022-10-13T14:50:20.658Z,28.40
2022-10-13T14:55:26.438Z,32.70
2022-10-13T15:00:31.579Z,27.48
2022-10-13T15:05:36.751Z,22.50
2022-10-13T15:10:40.479Z,26.62
2022-10-13T15:15:48.673Z,29.12
2022-10-13T15:20:54.033Z,26.35
2022-10-13T15:25:59.739Z,29.58
2022-10-13T15:31:05.433Z,32.50
2022-10-13T15:36:09.785Z,30.40
2022-10-13T15:41:16.126Z,29.85
2022-10-13T15:46:24.307Z,35.95
2022-10-13T15:51:28.245Z,31.65
2022-10-13T15:56:31.869Z,27.67
2022-10-13T16:01:37.270Z,28.90
2022-10-13T16:06:40.933Z,26.37
2022-10-13T16:11:44.692Z,33.30
2022-10-13T16:16:49.794Z,31.15
2022-10-13T16:21:53.527Z,28.58
2022-10-13T16:26:57.339Z,29.65
2022-10-13T16:32:03.027Z,27.52
2022-10-13T16:37:06.843Z,34.45
2022-10-13T16:42:10.500Z,30.58
2022-10-13T16:47:18.360Z,32.40
2022-10-13T16:52:22.540Z,35.45
2022-10-13T16:57:27.145Z,38.13
2022-10-13T17:02:32.199Z,35.45
2022-10-13T17:07:35.877Z,34.55
2022-10-13T17:12:39.609Z,32.40
2022-10-13T17:17:44.878Z,36.55
2022-10-13T17:22:48.629Z,33.10
2022-10-13T17:27:54.337Z,37.08
2022-10-13T17:33:04.038Z,29.42
2022-10-13T17:38:08.248Z,30.98
2022-10-13T17:43:12.463Z,33.65
2022-10-13T17:48:22.151Z,35.17
2022-10-13T17:53:26.698Z,41.25
2022-10-13T17:58:31.079Z,34.70
2022-10-13T18:03:36.324Z,33.75
2022-10-13T18:08:40.011Z,30.45
2022-10-13T18:13:44.549Z,47.67
2022-10-13T18:18:50.966Z,35.25
2022-10-13T18:23:55.542Z,44.67
2022-10-13T18:28:59.499Z,36.85
2022-10-13T18:34:07.187Z,34.55
2022-10-13T18:39:14.500Z,46.17
2022-10-13T18:44:19.627Z,35.15
2022-10-13T18:49:30.939Z,33.03
2022-10-13T18:54:35.167Z,45.85
2022-10-13T18:59:39.421Z,40.42
2022-10-13T19:04:44.477Z,41.10
2022-10-13T19:09:48.288Z,37.13
2022-10-13T19:14:52.145Z,38.50
2022-10-13T19:19:57.239Z,35.78
2022-10-13T19:25:01.064Z,40.85
2022-10-13T19:30:05.405Z,44.40
2022-10-13T19:35:10.954Z,38.67
2022-10-13T19:40:14.988Z,41.80
2022-10-13T19:45:19.430Z,42.62
2022-10-13T19:50:24.592Z,44.05
2022-10-13T19:55:28.419Z,42.67
2022-10-13T20:00:32.227Z,46.33
2022-10-13T20:05:41.046Z,46.00
2022-10-13T20:10:44.841Z,46.85
2022-10-13T20:15:48.708Z,46.83
2022-10-13T20:20:53.813Z,47.95
2022-10-13T20:25:57.953Z,40.10
2022-10-13T20:31:05.996Z,45.47
2022-10-13T20:36:13.602Z,44.58
2022-10-13T20:41:19.543Z,44.40
2022-10-13T20:46:24.059Z,42.53
2022-10-13T20:51:29.207Z,47.33
2022-10-13T20:56:32.956Z,47.90
2022-10-13T21:01:38.042Z,44.75
2022-10-13T21:06:43.526Z,47.78
2022-10-13T21:11:47.297Z,58.53
2022-10-13T21:16:51.076Z,45.90
2022-10-13T21:21:56.245Z,52.08
2022-10-13T21:26:59.939Z,54.33
2022-10-13T21:32:03.646Z,50.90
2022-10-13T21:37:08.724Z,50.42
2022-10-13T21:42:12.405Z,57.97
2022-10-13T21:47:16.072Z,57.17
2022-10-13T21:52:21.271Z,55.00
2022-10-13T21:57:24.989Z,56.40
2022-10-13T22:02:28.680Z,61.58
2022-10-13T22:07:33.782Z,63.72
2022-10-13T22:12:37.503Z,71.18
2022-10-13T22:17:41.269Z,69.93
2022-10-13T22:22:46.320Z,69.03
2022-10-13T22:27:50.081Z,70.93
2022-10-13T22:32:53.777Z,71.75
2022-10-13T22:37:58.925Z,61.75
2022-10-13T22:43:03.034Z,72.78
2022-10-13T22:48:07.267Z,76.47
2022-10-13T22:53:12.566Z,83.00
2022-10-13T22:58:16.262Z,77.95
2022-10-13T23:03:19.996Z,76.28
2022-10-13T23:08:26.668Z,83.40
2022-10-13T23:13:30.416Z,87.40
2022-10-13T23:18:35.314Z,82.93
2022-10-13T23:23:40.700Z,73.07
2022-10-13T23:28:45.388Z,76.85
2022-10-13T23:33:49.080Z,85.30
2022-10-13T23:38:57.005Z,84.70
2022-10-13T23:44:00.782Z,72.82
2022-10-13T23:49:04.644Z,68.55
2022-10-13T23:54:09.810Z,68.07
2022-10-13T23:59:13.553Z,74.68
